createdAt,value
2023-01-17T00:02:13.886Z,97267.66
2023-01-17T00:04:59.035Z,97272.81
2023-01-17T00:07:44.020Z,97257.72
2023-01-17T00:10:13.895Z,97264.72
2023-01-17T00:12:46.370Z,97277.97
2023-01-17T00:15:14.174Z,97280.69
2023-01-17T00:17:41.644Z,97263.94
2023-01-17T00:20:28.230Z,97291.78
2023-01-17T00:23:13.036Z,97297.91
2023-01-17T00:25:59.656Z,97281.63
2023-01-17T00:28:26.423Z,97290.41
2023-01-17T00:30:52.776Z,97293.13
2023-01-17T00:33:19.364Z,97286.94
2023-01-17T00:35:45.795Z,97288.19
2023-01-17T00:38:12.846Z,97293.81
2023-01-17T00:40:41.136Z,97308.97
2023-01-17T00:43:26.306Z,97303.59
2023-01-17T00:46:10.987Z,97313.09
2023-01-17T00:48:56.434Z,97315.81
2023-01-17T00:51:41.773Z,97315.31
2023-01-17T00:54:27.158Z,97326.72
2023-01-17T00:57:13.256Z,97338.19
2023-01-17T00:59:58.418Z,97350.31
2023-01-17T01:02:43.931Z,97350.28
2023-01-17T01:05:29.124Z,97344.31
2023-01-17T01:08:14.566Z,97346.41
2023-01-17T01:10:59.526Z,97358.44
2023-01-17T01:13:46.086Z,97351.94
2023-01-17T01:16:31.367Z,97382.47
2023-01-17T01:19:17.041Z,97385.00
2023-01-17T01:22:01.952Z,97385.50
2023-01-17T01:24:46.780Z,97415.41
2023-01-17T01:27:32.198Z,97407.56
2023-01-17T01:30:18.335Z,97397.72
2023-01-17T01:33:03.255Z,97403.50
2023-01-17T01:35:30.850Z,97413.75
2023-01-17T01:37:58.396Z,97426.00
2023-01-17T01:40:25.851Z,97432.47
2023-01-17T01:42:55.175Z,97424.34
2023-01-17T01:45:25.119Z,97423.53
2023-01-17T01:47:52.994Z,97446.44
2023-01-17T01:50:20.621Z,97459.00
2023-01-17T01:52:49.189Z,97455.19
2023-01-17T01:55:17.089Z,97448.63
2023-01-17T01:57:45.478Z,97464.63
2023-01-17T02:00:14.787Z,97462.56
2023-01-17T02:02:43.633Z,97468.03
2023-01-17T02:05:11.298Z,97478.69
2023-01-17T02:07:39.742Z,97479.13
2023-01-17T02:10:07.322Z,97475.22
2023-01-17T02:12:34.874Z,97500.44
2023-01-17T02:15:02.369Z,97493.22
2023-01-17T02:17:32.513Z,97510.41
2023-01-17T02:20:22.548Z,97509.94
2023-01-17T02:22:59.301Z,97507.19
2023-01-17T02:25:32.413Z,97513.72
2023-01-17T02:28:04.583Z,97515.81
2023-01-17T02:30:34.809Z,97534.47
2023-01-17T02:33:04.756Z,97532.06
2023-01-17T02:35:35.052Z,97536.59
2023-01-17T02:38:04.665Z,97550.25
2023-01-17T02:40:33.019Z,97539.19
2023-01-17T02:43:02.673Z,97555.53
2023-01-17T02:45:30.387Z,97569.94
2023-01-17T02:47:59.269Z,97558.41
2023-01-17T02:50:27.306Z,97564.50
2023-01-17T02:53:02.496Z,97558.47
2023-01-17T02:55:34.004Z,97576.44
2023-01-17T02:58:20.634Z,97575.84
2023-01-17T03:00:51.827Z,97595.16
2023-01-17T03:03:23.906Z,97587.13
2023-01-17T03:05:51.910Z,97575.66
2023-01-17T03:08:19.399Z,97591.06
2023-01-17T03:10:46.865Z,97603.38
2023-01-17T03:13:14.556Z,97602.38
2023-01-17T03:15:42.186Z,97597.06
2023-01-17T03:18:11.408Z,97619.25
2023-01-17T03:20:40.293Z,97623.09
2023-01-17T03:23:07.755Z,97614.44
2023-01-17T03:25:35.251Z,97624.03
2023-01-17T03:28:02.775Z,97627.59
2023-01-17T03:30:30.333Z,97620.09
2023-01-17T03:32:57.798Z,97632.06
2023-01-17T03:35:25.347Z,97629.63
2023-01-17T03:37:54.211Z,97611.75
2023-01-17T03:40:21.746Z,97624.53
2023-01-17T03:42:49.221Z,97638.44
2023-01-17T03:45:16.876Z,97635.53
2023-01-17T03:47:44.359Z,97639.03
2023-01-17T03:50:12.722Z,97645.66
2023-01-17T03:52:40.197Z,97646.28
2023-01-17T03:55:09.710Z,97655.13
2023-01-17T03:57:37.282Z,97653.03
2023-01-17T04:00:05.228Z,97666.31
2023-01-17T04:02:32.790Z,97675.44
2023-01-17T04:05:00.443Z,97681.34
2023-01-17T04:07:27.987Z,97673.88
2023-01-17T04:09:55.582Z,97676.25
2023-01-17T04:12:24.416Z,97680.06
2023-01-17T04:14:51.882Z,97691.31
2023-01-17T04:17:19.911Z,97697.63
2023-01-17T04:19:47.417Z,97684.56
2023-01-17T04:22:14.894Z,97694.09
2023-01-17T04:24:42.378Z,97694.09
2023-01-17T04:27:14.107Z,97701.97
2023-01-17T04:29:44.748Z,97690.91
2023-01-17T04:32:13.349Z,97701.53
2023-01-17T04:34:40.808Z,97702.06
2023-01-17T04:37:08.328Z,97715.00
2023-01-17T04:39:35.899Z,97699.53
2023-01-17T04:42:03.850Z,97725.91
2023-01-17T04:44:31.345Z,97719.88
2023-01-17T04:47:01.904Z,97720.19
2023-01-17T04:49:29.494Z,97724.38
2023-01-17T04:51:57.001Z,97717.09
2023-01-17T04:54:24.474Z,97713.03
2023-01-17T04:56:51.982Z,97722.56
2023-01-17T04:59:19.461Z,97732.88
2023-01-17T05:01:48.686Z,97735.38
2023-01-17T05:04:17.722Z,97749.69
2023-01-17T05:06:45.685Z,97752.28
2023-01-17T05:09:13.240Z,97747.34
2023-01-17T05:11:40.895Z,97745.09
2023-01-17T05:14:08.446Z,97749.38
2023-01-17T05:16:36.095Z,97751.91
2023-01-17T05:19:03.633Z,97740.66
2023-01-17T05:21:32.513Z,97753.69
2023-01-17T05:24:00.051Z,97767.44
2023-01-17T05:26:27.620Z,97775.25
2023-01-17T05:28:55.118Z,97748.53
2023-01-17T05:31:22.630Z,97772.06
2023-01-17T05:33:50.174Z,97766.78
2023-01-17T05:36:18.898Z,97777.22
2023-01-17T05:38:49.140Z,97779.50
2023-01-17T05:41:16.683Z,97761.41
2023-01-17T05:43:44.470Z,97757.88
2023-01-17T05:46:12.047Z,97764.34
2023-01-17T05:48:39.622Z,97766.84
2023-01-17T05:51:07.344Z,97773.06
2023-01-17T05:53:34.930Z,97777.13
2023-01-17T05:56:03.842Z,97785.59
2023-01-17T05:58:31.350Z,97786.97
2023-01-17T06:00:58.885Z,97774.31
2023-01-17T06:03:26.643Z,97784.09
2023-01-17T06:05:54.199Z,97785.56
2023-01-17T06:08:23.384Z,97780.09
2023-01-17T06:10:51.004Z,97799.72
2023-01-17T06:13:21.909Z,97813.84
2023-01-17T06:15:49.541Z,97807.00
2023-01-17T06:18:17.656Z,97817.50
2023-01-17T06:20:45.441Z,97809.19
2023-01-17T06:23:13.378Z,97809.06
2023-01-17T06:25:41.168Z,97807.41
2023-01-17T06:28:08.703Z,97820.41
2023-01-17T06:30:37.613Z,97820.72
2023-01-17T06:33:05.326Z,97822.06
2023-01-17T06:35:32.867Z,97816.06
2023-01-17T06:38:00.532Z,97838.41
2023-01-17T06:40:28.246Z,97829.06
2023-01-17T06:42:55.870Z,97823.69
2023-01-17T06:45:23.357Z,97844.03
2023-01-17T06:47:52.217Z,97845.81
2023-01-17T06:50:19.740Z,97865.66
2023-01-17T06:52:50.391Z,97854.94
2023-01-17T06:55:17.924Z,97860.22
2023-01-17T06:57:45.405Z,97879.38
2023-01-17T07:00:13.424Z,97863.16
2023-01-17T07:02:40.938Z,97869.38
2023-01-17T07:05:10.707Z,97880.84
2023-01-17T07:07:38.163Z,97865.84
2023-01-17T07:10:06.110Z,97875.31
2023-01-17T07:12:33.594Z,97881.25
2023-01-17T07:15:01.046Z,97876.28
2023-01-17T07:17:28.532Z,97879.78
2023-01-17T07:19:56.046Z,97891.84
2023-01-17T07:22:24.857Z,97890.00
2023-01-17T07:24:53.497Z,97886.53
2023-01-17T07:27:20.956Z,97900.16
2023-01-17T07:29:48.452Z,97910.47
2023-01-17T07:32:15.997Z,97907.25
2023-01-17T07:34:43.503Z,97890.59
2023-01-17T07:37:11.350Z,97911.75
2023-01-17T07:39:40.933Z,97904.13
2023-01-17T07:42:09.171Z,97906.00
2023-01-17T07:44:36.774Z,97904.75
2023-01-17T07:47:04.350Z,97906.00
2023-01-17T07:49:31.892Z,97914.44
2023-01-17T07:51:59.364Z,97910.16
2023-01-17T07:54:27.282Z,97913.91
2023-01-17T07:56:56.166Z,97908.19
2023-01-17T07:59:23.664Z,97903.72
2023-01-17T08:01:51.264Z,97907.66
2023-01-17T08:04:18.910Z,97911.41
2023-01-17T08:06:48.680Z,97916.91
2023-01-17T08:09:16.161Z,97912.44
2023-01-17T08:11:43.685Z,97901.41
2023-01-17T08:14:12.538Z,97903.09
2023-01-17T08:16:40.222Z,97911.69
2023-01-17T08:19:07.837Z,97938.72
2023-01-17T08:21:35.330Z,97925.97
2023-01-17T08:24:02.865Z,97916.78
2023-01-17T08:26:30.362Z,97931.84
2023-01-17T08:29:00.169Z,97948.63
2023-01-17T08:31:29.189Z,97933.06
2023-01-17T08:33:57.354Z,97923.50
2023-01-17T08:36:26.268Z,97940.13
2023-01-17T08:38:53.785Z,97945.69
2023-01-17T08:41:21.628Z,97910.34
2023-01-17T08:43:49.557Z,97933.72
2023-01-17T08:46:17.080Z,97930.66
2023-01-17T08:48:45.933Z,97935.13
2023-01-17T08:51:13.553Z,97917.97
2023-01-17T08:53:41.886Z,97937.53
2023-01-17T08:56:10.284Z,97915.78
2023-01-17T08:58:37.798Z,97942.56
2023-01-17T09:01:06.427Z,97941.91
2023-01-17T09:03:34.358Z,97942.44
2023-01-17T09:06:04.016Z,97937.66
2023-01-17T09:08:31.514Z,97934.84
2023-01-17T09:10:59.094Z,97946.50
2023-01-17T09:13:26.569Z,97953.06
2023-01-17T09:15:56.901Z,97961.59
2023-01-17T09:18:24.528Z,97954.50
2023-01-17T09:20:54.864Z,97963.03
2023-01-17T09:23:23.989Z,97950.34
2023-01-17T09:25:54.371Z,97973.72
2023-01-17T09:28:22.032Z,97968.97
2023-01-17T09:30:49.991Z,97972.22
2023-01-17T09:33:17.556Z,97982.78
2023-01-17T09:35:45.254Z,97972.41
2023-01-17T09:38:12.860Z,97982.19
2023-01-17T09:40:43.820Z,97995.16
2023-01-17T09:43:13.513Z,97984.28
2023-01-17T09:45:41.029Z,97999.25
2023-01-17T09:48:10.180Z,98005.50
2023-01-17T09:50:38.793Z,98008.22
2023-01-17T09:53:06.611Z,98000.44
2023-01-17T09:55:35.706Z,98002.50
2023-01-17T09:58:06.045Z,98007.50
2023-01-17T10:00:37.007Z,98003.19
2023-01-17T10:03:10.752Z,98012.97
2023-01-17T10:05:42.183Z,98000.94
2023-01-17T10:08:12.924Z,98020.53
2023-01-17T10:10:41.310Z,98002.28
2023-01-17T10:13:13.560Z,98016.09
2023-01-17T10:15:47.339Z,98016.00
2023-01-17T10:18:30.358Z,98034.56
2023-01-17T10:20:59.146Z,98027.91
2023-01-17T10:23:34.305Z,98027.03
2023-01-17T10:26:01.833Z,98003.44
2023-01-17T10:28:32.175Z,98029.34
2023-01-17T10:31:01.047Z,98020.84
2023-01-17T10:33:29.720Z,98035.28
2023-01-17T10:35:57.959Z,98025.72
2023-01-17T10:38:27.936Z,98012.00
2023-01-17T10:40:56.239Z,98043.38
2023-01-17T10:43:25.167Z,98014.41
2023-01-17T10:45:54.713Z,98027.03
2023-01-17T10:48:23.827Z,98035.44
2023-01-17T10:50:53.460Z,98035.13
2023-01-17T10:53:24.231Z,98023.84
2023-01-17T10:55:53.363Z,98032.06
2023-01-17T10:58:20.846Z,98021.47
2023-01-17T11:00:49.322Z,98035.13
2023-01-17T11:03:20.723Z,98023.06
2023-01-17T11:05:59.060Z,98018.75
2023-01-17T11:08:26.534Z,98011.13
2023-01-17T11:10:54.371Z,98013.81
2023-01-17T11:13:23.957Z,98002.53
2023-01-17T11:15:51.999Z,98005.94
2023-01-17T11:18:21.465Z,98014.31
2023-01-17T11:20:49.470Z,98029.78
2023-01-17T11:23:17.467Z,98010.00
2023-01-17T11:25:51.546Z,98014.25
2023-01-17T11:28:21.131Z,98029.97
2023-01-17T11:30:52.090Z,98033.56
2023-01-17T11:33:31.721Z,98027.72
2023-01-17T11:35:59.302Z,98033.56
2023-01-17T11:38:26.833Z,98027.91
2023-01-17T11:41:14.320Z,98018.25
2023-01-17T11:43:49.635Z,98021.03
2023-01-17T11:46:18.090Z,98037.00
2023-01-17T11:48:49.378Z,98009.47
2023-01-17T11:51:26.798Z,98027.34
2023-01-17T11:53:54.658Z,98016.03
2023-01-17T11:56:30.194Z,98021.25
2023-01-17T11:59:16.298Z,98027.66
2023-01-17T12:01:44.606Z,98004.16
2023-01-17T12:04:24.796Z,98003.41
2023-01-17T12:07:16.725Z,97998.31
2023-01-17T12:09:45.970Z,98000.94
2023-01-17T12:12:33.336Z,98007.00
2023-01-17T12:15:03.195Z,97975.50
2023-01-17T12:17:34.105Z,97990.31
2023-01-17T12:20:06.086Z,98003.44
2023-01-17T12:22:51.679Z,97970.16
2023-01-17T12:25:27.125Z,97996.56
2023-01-17T12:27:59.805Z,97990.66
2023-01-17T12:30:31.752Z,97983.84
2023-01-17T12:33:15.722Z,97999.28
2023-01-17T12:35:45.508Z,97989.13
2023-01-17T12:38:27.286Z,98002.13
2023-01-17T12:41:00.434Z,97981.75
2023-01-17T12:43:30.041Z,97997.50
2023-01-17T12:45:57.545Z,97994.44
2023-01-17T12:48:25.186Z,97993.75
2023-01-17T12:50:55.203Z,98005.94
2023-01-17T12:53:25.676Z,97982.63
2023-01-17T12:55:54.345Z,97985.63
2023-01-17T12:58:22.979Z,97984.34
2023-01-17T13:00:52.310Z,98002.59
2023-01-17T13:03:23.922Z,97998.00
2023-01-17T13:05:51.437Z,97998.97
2023-01-17T13:08:21.477Z,98005.22
2023-01-17T13:10:51.208Z,98006.78
2023-01-17T13:13:22.426Z,98001.19
2023-01-17T13:15:50.254Z,98014.25
2023-01-17T13:18:22.798Z,97996.91
2023-01-17T13:20:56.092Z,97992.69
2023-01-17T13:23:28.657Z,97994.75
2023-01-17T13:25:57.006Z,98013.81
2023-01-17T13:28:27.664Z,98013.63
2023-01-17T13:31:15.855Z,98012.66
2023-01-17T13:33:46.743Z,98014.66
2023-01-17T13:36:18.565Z,97983.22
2023-01-17T13:38:59.362Z,98019.25
2023-01-17T13:41:38.047Z,97997.63
2023-01-17T13:44:24.379Z,98005.50
2023-01-17T13:46:59.633Z,98002.06
2023-01-17T13:49:34.514Z,98022.69
2023-01-17T13:52:03.269Z,98001.97
2023-01-17T13:54:32.568Z,98021.97
2023-01-17T13:57:18.727Z,98004.47
2023-01-17T13:59:46.297Z,97983.56
2023-01-17T14:02:28.682Z,97993.25
2023-01-17T14:05:12.527Z,97989.03
2023-01-17T14:07:43.075Z,97992.03
2023-01-17T14:10:24.601Z,97997.41
2023-01-17T14:12:52.148Z,98007.13
2023-01-17T14:15:22.202Z,98015.81
2023-01-17T14:17:59.522Z,98013.03
2023-01-17T14:20:33.546Z,98028.41
2023-01-17T14:23:01.376Z,98007.34
2023-01-17T14:25:30.695Z,97999.56
2023-01-17T14:27:59.551Z,98021.34
2023-01-17T14:30:27.720Z,98029.63
2023-01-17T14:33:08.675Z,97998.94
2023-01-17T14:35:37.068Z,98005.72
2023-01-17T14:38:05.830Z,98022.16
2023-01-17T14:40:35.258Z,98008.03
2023-01-17T14:43:03.818Z,98026.25
2023-01-17T14:45:31.950Z,98016.25
2023-01-17T14:47:59.967Z,98028.84
2023-01-17T14:50:29.218Z,98040.16
2023-01-17T14:53:28.152Z,98035.81
2023-01-17T14:55:58.596Z,98033.22
2023-01-17T14:58:26.935Z,98031.78
2023-01-17T15:00:56.230Z,98042.91
2023-01-17T15:03:23.856Z,98032.97
2023-01-17T15:05:52.165Z,98042.00
2023-01-17T15:08:20.605Z,98040.72
2023-01-17T15:10:49.358Z,98049.31
2023-01-17T15:13:23.369Z,98049.69
2023-01-17T15:16:06.596Z,98060.00
2023-01-17T15:18:36.281Z,98055.97
2023-01-17T15:21:04.462Z,98060.53
2023-01-17T15:23:34.526Z,98066.41
2023-01-17T15:26:02.345Z,98067.03
2023-01-17T15:28:31.473Z,98063.78
2023-01-17T15:31:03.081Z,98062.81
2023-01-17T15:33:31.286Z,98062.03
2023-01-17T15:36:02.371Z,98058.47
2023-01-17T15:38:38.264Z,98054.75
2023-01-17T15:41:08.941Z,98049.59
2023-01-17T15:43:37.851Z,98056.66
2023-01-17T15:46:05.950Z,98061.41
2023-01-17T15:48:36.480Z,98058.97
2023-01-17T15:51:04.058Z,98057.97
2023-01-17T15:53:32.432Z,98049.75
2023-01-17T15:56:00.328Z,98051.50
2023-01-17T15:58:29.251Z,98054.75
2023-01-17T16:00:58.268Z,98056.22
2023-01-17T16:03:27.303Z,98048.94
2023-01-17T16:05:56.885Z,98055.53
2023-01-17T16:08:25.947Z,98060.19
2023-01-17T16:10:54.805Z,98067.06
2023-01-17T16:13:22.379Z,98059.66
2023-01-17T16:15:49.894Z,98059.88
2023-01-17T16:18:19.158Z,98066.97
2023-01-17T16:20:48.243Z,98056.13
2023-01-17T16:23:15.789Z,98072.16
2023-01-17T16:25:44.469Z,98074.03
2023-01-17T16:28:11.955Z,98076.44
2023-01-17T16:30:39.506Z,98076.97
2023-01-17T16:33:07.072Z,98080.28
2023-01-17T16:35:36.900Z,98078.63
2023-01-17T16:38:05.244Z,98074.34
2023-01-17T16:40:33.259Z,98071.53
2023-01-17T16:43:01.750Z,98069.97
2023-01-17T16:45:29.865Z,98071.44
2023-01-17T16:47:57.373Z,98066.31
2023-01-17T16:50:25.620Z,98063.34
2023-01-17T16:52:56.123Z,98067.47
2023-01-17T16:55:24.290Z,98068.88
2023-01-17T16:57:52.694Z,98077.47
2023-01-17T17:00:20.713Z,98061.94
2023-01-17T17:02:50.342Z,98069.13
2023-01-17T17:05:18.024Z,98072.00
2023-01-17T17:07:46.309Z,98084.59
2023-01-17T17:10:16.534Z,98079.78
2023-01-17T17:12:44.289Z,98092.59
2023-01-17T17:15:12.175Z,98088.22
2023-01-17T17:17:40.152Z,98081.91
2023-01-17T17:20:09.636Z,98098.38
2023-01-17T17:22:37.199Z,98094.25
2023-01-17T17:25:05.241Z,98102.06
2023-01-17T17:27:34.138Z,98109.38
2023-01-17T17:30:01.644Z,98103.81
2023-01-17T17:32:29.215Z,98103.56
2023-01-17T17:34:56.724Z,98113.72
2023-01-17T17:37:24.377Z,98113.44
2023-01-17T17:39:51.940Z,98111.97
2023-01-17T17:42:20.616Z,98115.06
2023-01-17T17:44:49.660Z,98124.00
2023-01-17T17:47:17.810Z,98119.03
2023-01-17T17:49:45.311Z,98124.44
2023-01-17T17:52:13.817Z,98128.25
2023-01-17T17:54:41.357Z,98136.59
2023-01-17T17:57:08.867Z,98135.88
2023-01-17T17:59:36.386Z,98138.50
2023-01-17T18:02:06.681Z,98146.09
2023-01-17T18:04:34.249Z,98146.47
2023-01-17T18:07:01.901Z,98145.38
2023-01-17T18:09:29.429Z,98145.75
2023-01-17T18:11:56.983Z,98150.28
2023-01-17T18:14:24.514Z,98157.81
2023-01-17T18:16:52.164Z,98155.50
2023-01-17T18:19:21.577Z,98156.34
2023-01-17T18:21:50.365Z,98165.06
2023-01-17T18:24:18.667Z,98169.38
2023-01-17T18:26:46.953Z,98178.34
2023-01-17T18:29:15.894Z,98183.72
2023-01-17T18:31:43.525Z,98174.56
2023-01-17T18:34:11.834Z,98190.50
2023-01-17T18:36:40.780Z,98194.72
2023-01-17T18:39:11.621Z,98200.28
2023-01-17T18:41:39.103Z,98198.63
2023-01-17T18:44:07.009Z,98209.56
2023-01-17T18:46:34.849Z,98202.25
2023-01-17T18:49:02.574Z,98207.38
2023-01-17T18:51:31.782Z,98204.97
2023-01-17T18:54:04.846Z,98207.56
2023-01-17T18:56:34.090Z,98214.00
2023-01-17T18:59:01.805Z,98204.44
2023-01-17T19:01:29.802Z,98210.72
2023-01-17T19:03:58.618Z,98206.94
2023-01-17T19:06:27.184Z,98217.78
2023-01-17T19:08:54.815Z,98215.94
2023-01-17T19:11:24.051Z,98212.78
2023-01-17T19:13:52.472Z,98210.38
2023-01-17T19:16:20.910Z,98222.53
2023-01-17T19:18:48.509Z,98225.97
2023-01-17T19:21:17.330Z,98221.50
2023-01-17T19:23:44.850Z,98227.53
2023-01-17T19:26:12.766Z,98225.97
2023-01-17T19:28:42.027Z,98225.41
2023-01-17T19:31:10.059Z,98224.09
2023-01-17T19:33:38.233Z,98222.22
2023-01-17T19:36:06.718Z,98228.75
2023-01-17T19:38:35.229Z,98230.44
2023-01-17T19:41:07.578Z,98223.91
2023-01-17T19:43:35.117Z,98235.28
2023-01-17T19:46:03.962Z,98231.63
2023-01-17T19:48:31.475Z,98228.44
2023-01-17T19:51:04.330Z,98229.22
2023-01-17T19:53:31.794Z,98232.06
2023-01-17T19:55:59.237Z,98221.56
2023-01-17T19:58:26.734Z,98233.97
2023-01-17T20:00:54.883Z,98220.16
2023-01-17T20:03:24.002Z,98228.41
2023-01-17T20:05:56.450Z,98238.56
2023-01-17T20:08:24.020Z,98224.81
2023-01-17T20:10:51.546Z,98223.31
2023-01-17T20:13:19.001Z,98228.72
2023-01-17T20:15:46.492Z,98235.03
2023-01-17T20:18:14.049Z,98234.09
2023-01-17T20:20:56.334Z,98243.25
2023-01-17T20:23:24.362Z,98234.28
2023-01-17T20:25:58.844Z,98231.78
2023-01-17T20:28:27.721Z,98230.19
2023-01-17T20:30:55.408Z,98232.69
2023-01-17T20:33:23.169Z,98241.72
2023-01-17T20:36:08.722Z,98227.00
2023-01-17T20:38:44.387Z,98228.13
2023-01-17T20:41:12.440Z,98236.84
2023-01-17T20:43:40.064Z,98242.06
2023-01-17T20:46:07.716Z,98238.16
2023-01-17T20:48:35.374Z,98244.22
2023-01-17T20:51:05.831Z,98240.50
2023-01-17T20:53:33.809Z,98240.69
2023-01-17T20:56:01.298Z,98244.75
2023-01-17T20:58:28.893Z,98246.31
2023-01-17T21:00:56.640Z,98256.16
2023-01-17T21:03:24.979Z,98252.66
2023-01-17T21:05:52.452Z,98240.41
2023-01-17T21:08:21.281Z,98237.59
2023-01-17T21:10:48.987Z,98249.59
2023-01-17T21:13:16.569Z,98258.19
2023-01-17T21:15:44.393Z,98262.03
2023-01-17T21:18:11.927Z,98274.38
2023-01-17T21:20:39.485Z,98260.44
2023-01-17T21:23:08.987Z,98269.84
2023-01-17T21:25:37.874Z,98273.19
2023-01-17T21:28:06.094Z,98266.09
2023-01-17T21:30:33.707Z,98261.72
2023-01-17T21:33:01.223Z,98265.47
2023-01-17T21:35:30.061Z,98263.41
2023-01-17T21:37:57.923Z,98266.75
2023-01-17T21:40:25.659Z,98265.25
2023-01-17T21:42:54.552Z,98261.91
2023-01-17T21:45:22.107Z,98256.88
2023-01-17T21:47:49.937Z,98266.13
2023-01-17T21:50:32.401Z,98265.47
2023-01-17T21:53:00.681Z,98273.19
2023-01-17T21:55:45.830Z,98264.00
2023-01-17T21:58:32.846Z,98265.19
2023-01-17T22:01:10.966Z,98270.47
2023-01-17T22:03:38.616Z,98278.72
2023-01-17T22:06:06.299Z,98279.06
2023-01-17T22:08:34.055Z,98276.13
2023-01-17T22:11:03.502Z,98278.66
2023-01-17T22:13:33.207Z,98269.78
2023-01-17T22:16:01.274Z,98282.28
2023-01-17T22:18:28.890Z,98285.13
2023-01-17T22:20:58.099Z,98290.50
2023-01-17T22:23:25.685Z,98282.63
2023-01-17T22:25:53.251Z,98290.84
2023-01-17T22:28:20.871Z,98302.47
2023-01-17T22:30:49.710Z,98309.16
2023-01-17T22:33:17.271Z,98317.00
2023-01-17T22:35:44.758Z,98309.22
2023-01-17T22:38:12.366Z,98316.94
2023-01-17T22:40:39.835Z,98309.97
2023-01-17T22:43:07.313Z,98312.41
2023-01-17T22:45:34.845Z,98309.06
2023-01-17T22:48:03.707Z,98307.31
2023-01-17T22:50:31.219Z,98317.44
2023-01-17T22:52:59.001Z,98322.03
2023-01-17T22:55:26.677Z,98315.78
2023-01-17T22:57:54.127Z,98322.88
2023-01-17T23:00:21.786Z,98313.94
2023-01-17T23:02:49.283Z,98328.16
2023-01-17T23:05:18.350Z,98325.06
2023-01-17T23:07:46.402Z,98334.34
2023-01-17T23:10:34.488Z,98327.47
2023-01-17T23:13:01.974Z,98329.91
2023-01-17T23:15:47.171Z,98317.59
2023-01-17T23:18:32.389Z,98319.13
2023-01-17T23:21:01.209Z,98321.88
2023-01-17T23:23:28.705Z,98328.66
2023-01-17T23:26:00.102Z,98330.00
2023-01-17T23:28:26.622Z,98320.22
2023-01-17T23:30:54.085Z,98322.13
2023-01-17T23:33:21.616Z,98316.44
2023-01-17T23:35:49.081Z,98310.53
2023-01-17T23:38:29.264Z,98300.63
2023-01-17T23:41:18.200Z,98310.69
2023-01-17T23:43:45.789Z,98324.97
2023-01-17T23:46:13.610Z,98322.47
2023-01-17T23:48:41.122Z,98326.06
2023-01-17T23:51:09.012Z,98321.47
2023-01-17T23:53:38.118Z,98334.34
2023-01-17T23:56:06.421Z,98324.38
2023-01-17T23:58:34.048Z,98322.97
